createdAt,value
2023-04-25T00:02:06.314Z,9.95
2023-04-25T00:04:34.998Z,8.40
2023-04-25T00:07:02.632Z,9.68
2023-04-25T00:09:29.862Z,10.30
2023-04-25T00:11:57.505Z,8.23
2023-04-25T00:14:24.626Z,9.77
2023-04-25T00:16:52.785Z,8.38
2023-04-25T00:19:19.918Z,8.90
2023-04-25T00:21:47.328Z,8.02
2023-04-25T00:24:14.502Z,9.15
2023-04-25T00:26:41.645Z,10.25
2023-04-25T00:29:08.811Z,10.88
2023-04-25T00:31:36.019Z,9.45
2023-04-25T00:34:03.288Z,9.65
2023-04-25T00:36:31.004Z,9.25
2023-04-25T00:38:58.178Z,9.13
2023-04-25T00:41:27.019Z,10.13
2023-04-25T00:43:55.454Z,8.07
2023-04-25T00:46:22.771Z,8.13
2023-04-25T00:48:49.923Z,10.30
2023-04-25T00:51:21.139Z,8.65
2023-04-25T00:56:15.543Z,10.55
2023-04-25T00:58:43.980Z,9.13
2023-04-25T01:01:12.119Z,9.43
2023-04-25T01:03:44.008Z,10.13
2023-04-25T01:06:12.072Z,8.75
2023-04-25T01:08:39.773Z,8.00
2023-04-25T01:11:07.232Z,8.45
2023-04-25T01:13:34.673Z,8.40
2023-04-25T01:16:01.970Z,8.52
2023-04-25T01:18:29.075Z,8.43
2023-04-25T01:20:56.718Z,9.48
2023-04-25T01:23:24.326Z,13.82
2023-04-25T01:25:51.867Z,10.23
2023-04-25T01:28:19.225Z,14.02
2023-04-25T01:30:46.738Z,11.20
2023-04-25T01:33:15.650Z,7.80
2023-04-25T01:35:42.936Z,9.57
2023-04-25T01:38:10.078Z,8.90
2023-04-25T01:40:40.628Z,10.55
2023-04-25T01:43:09.249Z,8.98
2023-04-25T01:45:37.450Z,10.05
2023-04-25T01:48:04.760Z,9.90
2023-04-25T01:50:32.027Z,13.10
2023-04-25T01:52:59.191Z,10.45
2023-04-25T01:55:26.484Z,8.63
2023-04-25T01:57:53.623Z,10.68
2023-04-25T02:00:20.889Z,9.55
2023-04-25T02:02:48.081Z,14.02
2023-04-25T02:05:15.572Z,13.90
2023-04-25T02:07:42.682Z,15.82
2023-04-25T02:10:10.171Z,16.77
2023-04-25T02:12:37.736Z,17.00
2023-04-25T02:15:05.048Z,17.60
2023-04-25T02:17:32.752Z,15.88
2023-04-25T02:19:59.918Z,14.00
2023-04-25T02:22:27.874Z,14.15
2023-04-25T02:24:56.038Z,18.35
2023-04-25T02:27:23.211Z,15.02
2023-04-25T02:29:50.311Z,12.02
2023-04-25T02:32:17.402Z,11.60
2023-04-25T02:34:44.535Z,11.70
2023-04-25T02:37:11.969Z,10.48
2023-04-25T02:39:39.052Z,9.80
2023-04-25T02:42:06.241Z,11.20
2023-04-25T02:44:33.311Z,8.70
2023-04-25T02:47:00.459Z,10.32
2023-04-25T02:49:27.582Z,9.73
2023-04-25T02:51:54.646Z,10.75
2023-04-25T02:54:21.737Z,8.98
2023-04-25T02:56:48.832Z,9.90
2023-04-25T02:59:15.919Z,9.73
2023-04-25T03:01:43.009Z,10.77
2023-04-25T03:04:10.416Z,13.45
2023-04-25T03:06:37.522Z,9.35
2023-04-25T03:09:04.972Z,11.32
2023-04-25T03:11:32.111Z,9.65
2023-04-25T03:13:59.264Z,10.90
2023-04-25T03:16:26.952Z,11.93
2023-04-25T03:18:54.187Z,11.13
2023-04-25T03:21:21.288Z,9.65
2023-04-25T03:23:48.513Z,11.00
2023-04-25T03:26:16.365Z,9.20
2023-04-25T03:28:43.533Z,9.40
2023-04-25T03:31:10.621Z,11.63
2023-04-25T03:33:37.723Z,10.43
2023-04-25T03:36:04.922Z,10.75
2023-04-25T03:38:32.223Z,13.00
2023-04-25T03:40:59.486Z,12.52
2023-04-25T03:43:26.607Z,11.77
2023-04-25T03:45:53.838Z,10.43
2023-04-25T03:48:25.716Z,15.77
2023-04-25T03:50:53.576Z,11.45
2023-04-25T03:53:20.924Z,11.93
2023-04-25T03:55:48.062Z,8.57
2023-04-25T03:58:15.323Z,13.68
2023-04-25T04:00:42.420Z,12.55
2023-04-25T04:03:09.892Z,12.13
2023-04-25T04:05:38.250Z,12.25
2023-04-25T04:08:05.526Z,10.32
2023-04-25T04:10:32.635Z,12.02
2023-04-25T04:12:59.738Z,11.57
2023-04-25T04:15:26.855Z,10.18
2023-04-25T04:17:55.171Z,12.50
2023-04-25T04:20:22.318Z,10.13
2023-04-25T04:22:49.388Z,12.38
2023-04-25T04:25:16.788Z,15.00
2023-04-25T04:27:45.632Z,12.23
2023-04-25T04:30:14.014Z,11.45
2023-04-25T04:32:41.281Z,13.05
2023-04-25T04:35:10.003Z,12.00
2023-04-25T04:37:37.778Z,12.07
2023-04-25T04:40:06.274Z,8.90
2023-04-25T04:42:33.369Z,10.75
2023-04-25T04:45:02.531Z,12.48
2023-04-25T04:47:32.277Z,11.80
2023-04-25T04:49:59.486Z,12.43
2023-04-25T04:52:26.630Z,11.07
2023-04-25T04:54:54.029Z,12.15
2023-04-25T04:57:21.176Z,11.13
2023-04-25T04:59:48.305Z,15.23
2023-04-25T05:02:15.479Z,10.05
2023-04-25T05:04:42.689Z,14.32
2023-04-25T05:07:09.854Z,11.63
2023-04-25T05:09:37.026Z,14.35
2023-04-25T05:12:04.282Z,17.13
2023-04-25T05:14:31.436Z,14.23
2023-04-25T05:16:59.541Z,12.52
2023-04-25T05:19:27.493Z,11.68
2023-04-25T05:21:54.810Z,15.98
2023-04-25T05:24:22.060Z,14.93
2023-04-25T05:26:49.165Z,14.68
2023-04-25T05:29:16.294Z,14.70
2023-04-25T05:31:43.485Z,12.05
2023-04-25T05:34:10.568Z,11.20
2023-04-25T05:36:37.698Z,12.90
2023-04-25T05:39:05.591Z,15.02
2023-04-25T05:41:32.666Z,17.38
2023-04-25T05:44:00.021Z,19.20
2023-04-25T05:46:27.602Z,14.70
2023-04-25T05:48:54.922Z,12.38
2023-04-25T05:51:22.414Z,17.35
2023-04-25T05:53:49.773Z,13.60
2023-04-25T05:56:17.048Z,12.35
2023-04-25T05:58:44.177Z,12.80
2023-04-25T06:01:11.293Z,12.40
2023-04-25T06:03:39.517Z,16.20
2023-04-25T06:06:07.063Z,14.15
2023-04-25T06:08:34.379Z,15.23
2023-04-25T06:11:01.687Z,15.82
2023-04-25T06:13:28.784Z,12.43
2023-04-25T06:15:55.952Z,11.77
2023-04-25T06:18:23.102Z,15.88
2023-04-25T06:20:50.255Z,16.92
2023-04-25T06:23:17.391Z,15.70
2023-04-25T06:25:44.470Z,13.77
2023-04-25T06:28:11.625Z,14.85
2023-04-25T06:30:38.760Z,16.35
2023-04-25T06:33:05.903Z,13.93
2023-04-25T06:35:32.996Z,20.05
2023-04-25T06:38:00.192Z,15.05
2023-04-25T06:40:27.397Z,15.75
2023-04-25T06:42:54.498Z,16.13
2023-04-25T06:45:21.689Z,11.85
2023-04-25T06:47:48.932Z,13.18
2023-04-25T06:50:16.102Z,12.43
2023-04-25T06:52:43.212Z,12.95
2023-04-25T06:55:10.657Z,11.52
2023-04-25T06:57:37.828Z,13.10
2023-04-25T07:00:06.741Z,12.93
2023-04-25T07:02:33.956Z,8.80
2023-04-25T07:05:01.530Z,10.35
2023-04-25T07:07:28.741Z,11.07
2023-04-25T07:09:56.108Z,11.48
2023-04-25T07:12:23.270Z,18.65
2023-04-25T07:14:50.454Z,9.27
2023-04-25T07:17:17.529Z,10.48
2023-04-25T07:19:44.725Z,7.85
2023-04-25T07:22:11.848Z,8.70
2023-04-25T07:24:39.277Z,9.63
2023-04-25T07:27:07.150Z,8.55
2023-04-25T07:29:37.685Z,10.25
2023-04-25T07:32:05.099Z,10.45
2023-04-25T07:34:33.112Z,11.70
2023-04-25T07:37:00.545Z,6.35
2023-04-25T07:39:28.123Z,8.63
2023-04-25T07:41:55.760Z,9.23
2023-04-25T07:44:22.909Z,7.07
2023-04-25T07:46:50.000Z,10.93
2023-04-25T07:49:17.065Z,8.63
2023-04-25T07:51:47.312Z,10.65
2023-04-25T07:54:15.869Z,8.25
2023-04-25T07:56:51.999Z,8.77
2023-04-25T07:59:20.406Z,7.20
2023-04-25T08:01:47.718Z,7.80
2023-04-25T08:04:15.148Z,7.68
2023-04-25T08:06:42.724Z,6.43
2023-04-25T08:09:10.507Z,6.50
2023-04-25T08:11:37.892Z,9.00
2023-04-25T08:14:05.029Z,5.68
2023-04-25T08:16:32.177Z,6.45
2023-04-25T08:18:59.524Z,7.32
2023-04-25T08:21:27.938Z,7.50
2023-04-25T08:23:55.082Z,7.35
2023-04-25T08:26:22.227Z,5.22
2023-04-25T08:28:49.641Z,7.22
2023-04-25T08:31:17.245Z,6.32
2023-04-25T08:33:45.643Z,7.20
2023-04-25T08:36:13.185Z,7.90
2023-04-25T08:38:41.711Z,6.28
2023-04-25T08:41:08.810Z,4.93
2023-04-25T08:43:36.579Z,7.10
2023-04-25T08:46:04.554Z,6.90
2023-04-25T08:48:34.049Z,9.10
2023-04-25T08:51:03.648Z,8.67
2023-04-25T08:53:32.063Z,8.70
2023-04-25T08:56:00.065Z,4.90
2023-04-25T08:58:27.260Z,5.97
2023-04-25T09:00:54.339Z,6.07
2023-04-25T09:03:21.705Z,8.38
2023-04-25T09:05:49.054Z,6.07
2023-04-25T09:08:16.280Z,6.82
2023-04-25T09:10:43.458Z,6.25
2023-04-25T09:13:15.817Z,5.75
2023-04-25T09:15:53.049Z,9.05
2023-04-25T09:18:30.566Z,4.55
2023-04-25T09:21:02.094Z,6.93
2023-04-25T09:23:30.188Z,4.88
2023-04-25T09:25:57.483Z,6.32
2023-04-25T09:28:28.432Z,11.52
2023-04-25T09:30:58.512Z,10.10
2023-04-25T09:33:32.815Z,5.53
2023-04-25T09:36:07.078Z,8.88
2023-04-25T09:38:41.467Z,5.78
2023-04-25T09:41:09.788Z,5.25
2023-04-25T09:43:37.047Z,6.75
2023-04-25T09:46:04.730Z,12.05
2023-04-25T09:48:31.902Z,5.90
2023-04-25T09:51:04.984Z,9.18
2023-04-25T09:53:33.108Z,5.43
2023-04-25T09:56:02.068Z,7.82
2023-04-25T09:58:32.902Z,8.02
2023-04-25T10:01:02.133Z,7.28
2023-04-25T10:03:31.930Z,8.30
2023-04-25T10:06:01.476Z,7.88
2023-04-25T10:08:33.020Z,4.38
2023-04-25T10:11:04.169Z,6.22
2023-04-25T10:13:31.984Z,5.93
2023-04-25T10:16:02.753Z,9.80
2023-04-25T10:18:30.494Z,7.35
2023-04-25T10:20:58.632Z,6.55
2023-04-25T10:23:26.105Z,5.75
2023-04-25T10:25:53.580Z,5.78
2023-04-25T10:28:21.057Z,7.80
2023-04-25T10:30:58.856Z,8.88
2023-04-25T10:33:39.291Z,4.43
2023-04-25T10:36:16.763Z,5.20
2023-04-25T10:38:44.539Z,6.68
2023-04-25T10:41:13.067Z,5.07
2023-04-25T10:43:44.571Z,5.15
2023-04-25T10:46:14.706Z,4.68
2023-04-25T10:48:47.597Z,9.82
2023-04-25T10:51:17.859Z,4.93
2023-04-25T10:53:49.269Z,4.03
2023-04-25T10:56:21.360Z,7.70
2023-04-25T10:58:51.183Z,6.85
2023-04-25T11:03:46.685Z,5.68
2023-04-25T11:06:24.162Z,8.02
2023-04-25T11:08:52.254Z,6.38
2023-04-25T11:11:19.997Z,4.32
2023-04-25T11:13:51.268Z,7.60
2023-04-25T11:16:27.416Z,6.85
2023-04-25T11:18:55.839Z,7.38
2023-04-25T11:21:22.952Z,6.05
2023-04-25T11:23:50.325Z,6.03
2023-04-25T11:26:17.740Z,6.07
2023-04-25T11:28:47.930Z,6.53
2023-04-25T11:31:15.485Z,7.20
2023-04-25T11:33:43.632Z,6.80
2023-04-25T11:36:11.691Z,7.47
2023-04-25T11:38:38.886Z,7.90
2023-04-25T11:41:06.016Z,7.53
2023-04-25T11:43:34.243Z,6.43
2023-04-25T11:46:02.152Z,5.50
2023-04-25T11:48:29.711Z,7.18
2023-04-25T11:50:56.808Z,6.65
2023-04-25T11:53:25.779Z,5.15
2023-04-25T11:55:53.356Z,5.30
2023-04-25T11:58:20.815Z,6.95
2023-04-25T12:00:50.315Z,4.85
2023-04-25T12:03:19.420Z,6.40
2023-04-25T12:05:47.654Z,8.13
2023-04-25T12:08:15.432Z,7.05
2023-04-25T12:10:44.075Z,6.90
2023-04-25T12:13:27.656Z,7.43
2023-04-25T12:15:57.863Z,10.77
2023-04-25T12:18:29.121Z,6.68
2023-04-25T12:20:57.125Z,6.20
2023-04-25T12:23:29.191Z,6.47
2023-04-25T12:25:57.130Z,8.23
2023-04-25T12:28:25.842Z,8.18
2023-04-25T12:30:54.193Z,5.97
2023-04-25T12:33:21.436Z,6.25
2023-04-25T12:35:48.791Z,8.50
2023-04-25T12:38:22.583Z,4.68
2023-04-25T12:40:49.718Z,6.10
2023-04-25T12:43:16.843Z,4.93
2023-04-25T12:45:44.007Z,7.50
2023-04-25T12:48:11.451Z,6.35
2023-04-25T12:50:38.619Z,8.95
2023-04-25T12:53:05.802Z,8.02
2023-04-25T12:55:32.902Z,8.60
2023-04-25T12:57:59.990Z,6.30
2023-04-25T13:00:28.785Z,5.20
2023-04-25T13:02:56.083Z,5.03
2023-04-25T13:05:23.540Z,6.80
2023-04-25T13:07:50.859Z,6.65
2023-04-25T13:10:18.934Z,8.60
2023-04-25T13:12:46.972Z,7.88
2023-04-25T13:15:16.396Z,6.45
2023-04-25T13:17:44.027Z,6.10
2023-04-25T13:20:11.574Z,5.18
2023-04-25T13:22:39.537Z,6.60
2023-04-25T13:25:07.652Z,5.25
2023-04-25T13:27:35.319Z,5.78
2023-04-25T13:30:05.713Z,6.53
2023-04-25T13:32:32.807Z,7.72
2023-04-25T13:34:59.898Z,4.72
2023-04-25T13:37:26.971Z,5.63
2023-04-25T13:39:56.294Z,7.15
2023-04-25T13:42:23.499Z,6.55
2023-04-25T13:44:50.818Z,6.40
2023-04-25T13:47:18.075Z,5.03
2023-04-25T13:49:45.272Z,4.95
2023-04-25T13:52:12.427Z,9.88
2023-04-25T13:54:39.527Z,6.40
2023-04-25T13:57:07.703Z,9.98
2023-04-25T13:59:35.130Z,5.78
2023-04-25T14:02:02.414Z,6.20
2023-04-25T14:04:29.721Z,6.72
2023-04-25T14:06:57.014Z,7.13
2023-04-25T14:09:26.579Z,7.30
2023-04-25T14:11:53.760Z,5.15
2023-04-25T14:14:21.432Z,7.50
2023-04-25T14:16:52.394Z,10.43
2023-04-25T14:21:49.364Z,4.15
2023-04-25T14:24:16.825Z,4.80
2023-04-25T14:26:44.017Z,4.80
2023-04-25T14:29:12.975Z,5.65
2023-04-25T14:31:41.308Z,5.35
2023-04-25T14:34:08.804Z,5.35
2023-04-25T14:36:37.093Z,6.88
2023-04-25T14:39:06.275Z,5.75
2023-04-25T14:41:33.760Z,6.65
2023-04-25T14:44:00.879Z,6.00
2023-04-25T14:46:28.134Z,6.68
2023-04-25T14:48:56.852Z,7.43
2023-04-25T14:51:24.135Z,5.53
2023-04-25T14:53:52.263Z,6.30
2023-04-25T14:56:19.895Z,5.93
2023-04-25T14:58:47.179Z,5.57
2023-04-25T15:01:14.804Z,6.28
2023-04-25T15:03:42.329Z,4.55
2023-04-25T15:06:09.841Z,6.22
2023-04-25T15:08:37.223Z,6.32
2023-04-25T15:11:04.566Z,5.45
2023-04-25T15:13:31.936Z,5.18
2023-04-25T15:15:59.089Z,4.75
2023-04-25T15:18:26.340Z,10.27
2023-04-25T15:20:54.666Z,4.68
2023-04-25T15:23:22.856Z,8.73
2023-04-25T15:25:52.048Z,7.10
2023-04-25T15:28:19.867Z,5.28
2023-04-25T15:30:47.011Z,6.35
2023-04-25T15:33:14.538Z,7.22
2023-04-25T15:35:41.781Z,5.20
2023-04-25T15:38:11.519Z,6.05
2023-04-25T15:40:38.757Z,7.95
2023-04-25T15:43:06.227Z,4.97
2023-04-25T15:45:33.555Z,5.35
2023-04-25T15:48:02.006Z,5.32
2023-04-25T15:50:28.898Z,6.15
2023-04-25T15:52:55.703Z,5.15
2023-04-25T15:55:23.213Z,4.32
2023-04-25T15:57:51.389Z,5.68
2023-04-25T16:00:19.344Z,6.78
2023-04-25T16:02:48.194Z,5.22
2023-04-25T16:05:15.680Z,7.10
2023-04-25T16:07:45.152Z,5.82
2023-04-25T16:10:12.791Z,6.93
2023-04-25T16:12:40.804Z,5.25
2023-04-25T16:15:08.067Z,5.93
2023-04-25T16:17:35.288Z,7.68
2023-04-25T16:20:05.006Z,8.13
2023-04-25T16:22:31.927Z,8.82
2023-04-25T16:24:58.610Z,6.10
2023-04-25T16:27:25.717Z,5.57
2023-04-25T16:29:52.580Z,5.93
2023-04-25T16:32:19.655Z,5.93
2023-04-25T16:34:46.508Z,7.63
2023-04-25T16:37:13.202Z,7.88
2023-04-25T16:39:39.932Z,6.22
2023-04-25T16:42:07.131Z,8.45
2023-04-25T16:44:33.903Z,5.95
2023-04-25T16:47:00.850Z,5.80
2023-04-25T16:49:27.895Z,6.63
2023-04-25T16:51:54.631Z,6.72
2023-04-25T16:54:21.327Z,8.23
2023-04-25T16:56:48.046Z,6.60
2023-04-25T16:59:14.738Z,8.13
2023-04-25T17:01:41.430Z,7.05
2023-04-25T17:04:08.293Z,6.63
2023-04-25T17:06:35.245Z,8.57
2023-04-25T17:09:02.025Z,8.07
2023-04-25T17:11:28.816Z,4.97
2023-04-25T17:13:55.684Z,8.13
2023-04-25T17:16:23.179Z,7.72
2023-04-25T17:18:53.504Z,5.38
2023-04-25T17:21:20.408Z,7.35
2023-04-25T17:23:47.287Z,5.35
2023-04-25T17:26:14.709Z,6.20
2023-04-25T17:28:42.285Z,7.43
2023-04-25T17:31:09.828Z,6.60
2023-04-25T17:33:36.711Z,5.93
2023-04-25T17:36:04.094Z,5.32
2023-04-25T17:38:31.590Z,6.40
2023-04-25T17:40:59.996Z,6.57
2023-04-25T17:43:27.710Z,8.00
2023-04-25T17:45:54.686Z,6.32
2023-04-25T17:48:24.234Z,7.10
2023-04-25T17:50:51.599Z,5.25
2023-04-25T17:53:18.339Z,7.45
2023-04-25T17:55:45.267Z,9.85
2023-04-25T17:58:11.942Z,10.20
2023-04-25T18:00:39.331Z,9.20
2023-04-25T18:03:06.998Z,11.50
2023-04-25T18:05:33.825Z,11.45
2023-04-25T18:08:00.853Z,7.72
2023-04-25T18:10:27.686Z,9.25
2023-04-25T18:12:54.478Z,7.93
2023-04-25T18:15:22.060Z,10.70
2023-04-25T18:17:49.150Z,7.53
2023-04-25T18:20:16.685Z,9.40
2023-04-25T18:22:44.835Z,12.05
2023-04-25T18:25:12.806Z,12.95
2023-04-25T18:27:40.781Z,11.23
2023-04-25T18:30:09.331Z,14.00
2023-04-25T18:32:36.777Z,12.10
2023-04-25T18:35:04.320Z,10.02
2023-04-25T18:37:30.992Z,17.52
2023-04-25T18:39:58.623Z,12.52
2023-04-25T18:42:25.386Z,16.75
2023-04-25T18:44:52.438Z,17.27
2023-04-25T18:47:19.188Z,17.05
2023-04-25T18:49:45.861Z,13.60
2023-04-25T18:52:16.020Z,17.73
2023-04-25T18:54:43.239Z,11.98
2023-04-25T18:57:11.546Z,15.45
2023-04-25T18:59:38.203Z,12.00
2023-04-25T19:02:05.473Z,17.20
2023-04-25T19:04:32.634Z,19.35
2023-04-25T19:06:59.674Z,13.18
2023-04-25T19:09:26.756Z,12.55
2023-04-25T19:11:54.108Z,12.75
2023-04-25T19:14:20.762Z,10.52
2023-04-25T19:16:47.552Z,10.88
2023-04-25T19:19:14.348Z,11.63
2023-04-25T19:21:41.639Z,9.02
2023-04-25T19:24:08.720Z,9.32
2023-04-25T19:26:35.629Z,10.25
2023-04-25T19:29:15.130Z,11.73
2023-04-25T19:31:44.025Z,10.77
2023-04-25T19:34:11.580Z,13.50
2023-04-25T19:36:39.528Z,13.18
2023-04-25T19:39:07.391Z,10.60
2023-04-25T19:41:38.524Z,10.05
2023-04-25T19:44:07.726Z,9.65
2023-04-25T19:46:35.755Z,10.52
2023-04-25T19:49:04.152Z,8.65
2023-04-25T19:51:34.073Z,10.43
2023-04-25T19:54:00.971Z,11.98
2023-04-25T19:56:29.660Z,12.40
2023-04-25T19:58:58.351Z,9.32
2023-04-25T20:01:25.592Z,11.02
2023-04-25T20:03:52.781Z,10.25
2023-04-25T20:06:19.871Z,8.98
2023-04-25T20:08:47.236Z,11.63
2023-04-25T20:11:14.891Z,8.55
2023-04-25T20:13:41.757Z,10.38
2023-04-25T20:16:08.504Z,12.98
2023-04-25T20:18:35.323Z,9.35
2023-04-25T20:21:02.455Z,11.00
2023-04-25T20:23:29.289Z,9.98
2023-04-25T20:25:56.150Z,9.98
2023-04-25T20:28:23.346Z,11.82
2023-04-25T20:30:50.676Z,10.77
2023-04-25T20:33:17.467Z,8.57
2023-04-25T20:35:44.513Z,7.40
2023-04-25T20:38:12.091Z,10.32
2023-04-25T20:40:38.986Z,7.88
2023-04-25T20:43:06.290Z,11.88
2023-04-25T20:45:34.566Z,12.57
2023-04-25T20:48:02.596Z,10.07
2023-04-25T20:50:29.586Z,10.63
2023-04-25T20:52:56.295Z,8.60
2023-04-25T20:55:22.978Z,7.93
2023-04-25T20:57:49.971Z,8.13
2023-04-25T21:00:27.023Z,8.18
2023-04-25T21:02:54.728Z,10.23
2023-04-25T21:05:22.313Z,7.90
2023-04-25T21:07:49.645Z,7.53
2023-04-25T21:10:19.547Z,10.25
2023-04-25T21:12:49.686Z,8.05
2023-04-25T21:15:20.156Z,16.98
2023-04-25T21:17:47.715Z,13.17
2023-04-25T21:20:17.688Z,9.60
2023-04-25T21:22:54.038Z,9.60
2023-04-25T21:25:30.015Z,7.07
2023-04-25T21:27:57.420Z,7.43
2023-04-25T21:30:24.858Z,8.10
2023-04-25T21:32:52.837Z,12.18
2023-04-25T21:35:23.066Z,8.93
2023-04-25T21:37:50.686Z,7.47
2023-04-25T21:40:17.677Z,7.93
2023-04-25T21:42:46.891Z,8.35
2023-04-25T21:45:13.581Z,7.95
2023-04-25T21:47:40.398Z,9.40
2023-04-25T21:50:07.971Z,7.68
2023-04-25T21:52:37.928Z,8.70
2023-04-25T21:55:05.752Z,9.48
2023-04-25T21:57:32.439Z,10.13
2023-04-25T21:59:59.131Z,10.68
2023-04-25T22:02:27.313Z,7.35
2023-04-25T22:04:54.100Z,7.60
2023-04-25T22:07:20.783Z,5.30
2023-04-25T22:09:55.043Z,8.40
2023-04-25T22:12:23.538Z,7.75
2023-04-25T22:14:51.053Z,8.40
2023-04-25T22:17:19.337Z,8.82
2023-04-25T22:19:47.096Z,6.13
2023-04-25T22:22:14.286Z,8.05
2023-04-25T22:24:42.132Z,7.63
2023-04-25T22:27:11.075Z,7.13
2023-04-25T22:29:38.195Z,9.15
2023-04-25T22:32:05.382Z,7.55
2023-04-25T22:34:32.498Z,12.00
2023-04-25T22:36:59.709Z,8.90
2023-04-25T22:39:26.952Z,10.90
2023-04-25T22:41:54.645Z,11.80
2023-04-25T22:44:22.333Z,10.63
2023-04-25T22:46:49.483Z,14.52
2023-04-25T22:49:17.280Z,12.57
2023-04-25T22:51:44.429Z,11.65
2023-04-25T22:54:11.567Z,14.82
2023-04-25T22:56:38.745Z,13.05
2023-04-25T22:59:06.342Z,13.68
2023-04-25T23:01:33.492Z,16.00
2023-04-25T23:04:01.242Z,20.02
2023-04-25T23:06:28.773Z,13.25
2023-04-25T23:08:55.964Z,15.60
2023-04-25T23:11:23.879Z,12.02
2023-04-25T23:13:51.483Z,12.43
2023-04-25T23:16:18.701Z,12.38
2023-04-25T23:18:46.496Z,12.75
2023-04-25T23:21:13.650Z,10.50
2023-04-25T23:23:40.811Z,9.40
2023-04-25T23:26:08.745Z,12.68
2023-04-25T23:28:36.121Z,13.07
2023-04-25T23:31:06.531Z,11.48
2023-04-25T23:33:33.952Z,13.25
2023-04-25T23:36:01.467Z,11.45
2023-04-25T23:38:28.702Z,12.77
2023-04-25T23:40:56.351Z,10.05
2023-04-25T23:43:23.501Z,10.88
2023-04-25T23:45:50.653Z,11.52
2023-04-25T23:48:17.882Z,12.98
2023-04-25T23:50:44.989Z,13.32
2023-04-25T23:53:12.087Z,11.95
2023-04-25T23:55:39.227Z,12.73
2023-04-25T23:58:06.360Z,13.63
